^^

..:: Storico WU ::..




Lo storico viene creato da WUnderground con i dati che la stazione Meteomincio invia al loro server. L' aggiornamento viene fatto ogni 5 minuti circa, tuttavia possono esserci intervalli pił ampi a causa di errori, interruzioni di servizio o problemi nell' invio tramite FTP.


Storico stazione MeteoMincio
Giorno Sommario per Settembre 27, 2022 Unità:  Inglese    Metrico   Entrambi
Giorno Settimana Mese Anno
  Max: Min: Media:
Temperatura: 75.2 °F 57.2 °F 64.2 °F
Dew Point: 60.8 °F 53.6 °F 56.1 °F
Umidità: 92% 50% 77%
Velocità vento: 8.7mph 0mph 3.5mph
Raffica: 11.8mph - -
Direzione- - SSE
Pressione: 29.6 in 29.5 in -
Precipitazioni: 0 in    
 
 
Tabulato Dati per Settembre 27, 2022
Ora Temperatura Dew Point Pressione Direzione Velocità vento Raffica Umidità Intensità pioggia (oraria) Info solare Situazione
00:04 60.8 °F 57.2 °F 29.6 in NE 4.3 mph 6.2 mph 87% 0 in 0.00 W/m2 unknown
00:09 60.8 °F 57.2 °F 29.6 in ENE 3.1 mph 6.2 mph 87% 0 in 0.00 W/m2 unknown
00:14 60.8 °F 57.2 °F 29.6 in NE 1.9 mph 3.1 mph 87% 0 in 0.00 W/m2 unknown
00:19 60.8 °F 57.2 °F 29.6 in ENE 2.5 mph 5 mph 88% 0 in 0.00 W/m2 unknown
00:24 60.8 °F 57.2 °F 29.6 in NE 3.1 mph 5 mph 88% 0 in 0.00 W/m2 unknown
00:29 60.8 °F 57.2 °F 29.6 in NE 3.1 mph 3.7 mph 88% 0 in 0.00 W/m2 unknown
00:34 60.8 °F 55.4 °F 29.6 in NE 3.7 mph 3.7 mph 86% 0 in 0.00 W/m2 unknown
00:39 60.8 °F 55.4 °F 29.6 in ENE 3.7 mph 5 mph 86% 0 in 0.00 W/m2 unknown
00:44 59 °F 55.4 °F 29.6 in ENE 4.3 mph 6.8 mph 85% 0 in 0.00 W/m2 unknown
00:49 59 °F 55.4 °F 29.6 in ENE 5 mph 6.8 mph 85% 0 in 0.00 W/m2 unknown
00:54 59 °F 55.4 °F 29.6 in ENE 3.7 mph 5 mph 86% 0 in 0.00 W/m2 unknown
00:59 59 °F 55.4 °F 29.6 in ENE 3.7 mph 5 mph 86% 0 in 0.00 W/m2 unknown
01:04 59 °F 55.4 °F 29.6 in East 3.7 mph 5 mph 86% 0 in 0.00 W/m2 unknown
01:09 59 °F 55.4 °F 29.6 in ESE 3.1 mph 5 mph 86% 0 in 0.00 W/m2 unknown
01:14 59 °F 55.4 °F 29.6 in East 5.6 mph 6.8 mph 87% 0 in 0.00 W/m2 unknown
01:19 59 °F 53.6 °F 29.6 in East 5 mph 6.8 mph 87% 0 in 0.00 W/m2 unknown
01:24 57.2 °F 53.6 °F 29.6 in East 4.3 mph 6.2 mph 87% 0 in 0.00 W/m2 unknown
01:29 57.2 °F 53.6 °F 29.6 in NE 4.3 mph 6.2 mph 87% 0 in 0.00 W/m2 unknown
01:34 57.2 °F 53.6 °F 29.6 in NE 3.1 mph 6.2 mph 87% 0 in 0.00 W/m2 unknown
01:39 57.2 °F 53.6 °F 29.6 in East 2.5 mph 3.7 mph 87% 0 in 0.00 W/m2 unknown
01:44 57.2 °F 53.6 °F 29.6 in ENE 1.9 mph 3.7 mph 87% 0 in 0.00 W/m2 unknown
01:49 57.2 °F 53.6 °F 29.6 in West 1.2 mph 3.1 mph 87% 0 in 0.00 W/m2 unknown
01:54 57.2 °F 53.6 °F 29.6 in East 1.2 mph 3.7 mph 87% 0 in 0.00 W/m2 unknown
01:59 57.2 °F 53.6 °F 29.6 in ENE 3.1 mph 3.7 mph 87% 0 in 0.00 W/m2 unknown
02:04 57.2 °F 53.6 °F 29.6 in ENE 2.5 mph 3.7 mph 88% 0 in 0.00 W/m2 unknown
02:09 57.2 °F 53.6 °F 29.6 in East 2.5 mph 3.7 mph 88% 0 in 0.00 W/m2 unknown
02:14 57.2 °F 53.6 °F 29.6 in East 1.9 mph 3.1 mph 88% 0 in 0.00 W/m2 unknown
02:19 57.2 °F 53.6 °F 29.6 in ENE 1.2 mph 2.5 mph 88% 0 in 0.00 W/m2 unknown
02:24 57.2 °F 53.6 °F 29.6 in ENE 1.2 mph 2.5 mph 87% 0 in 0.00 W/m2 unknown
02:29 57.2 °F 53.6 °F 29.6 in ENE 1.2 mph 2.5 mph 88% 0 in 0.00 W/m2 unknown
02:34 57.2 °F 53.6 °F 29.6 in NE 1.2 mph 2.5 mph 88% 0 in 0.00 W/m2 unknown
02:39 59 °F 53.6 °F 29.6 in NE 1.9 mph 3.7 mph 88% 0 in 0.00 W/m2 unknown
02:44 59 °F 53.6 °F 29.6 in ENE 3.1 mph 3.7 mph 87% 0 in 0.00 W/m2 unknown
02:49 57.2 °F 53.6 °F 29.6 in NE 3.1 mph 3.7 mph 87% 0 in 0.00 W/m2 unknown
02:54 57.2 °F 53.6 °F 29.6 in NNE 2.5 mph 3.7 mph 87% 0 in 0.00 W/m2 unknown
02:59 59 °F 53.6 °F 29.6 in North 1.9 mph 3.7 mph 87% 0 in 0.00 W/m2 unknown
03:04 59 °F 53.6 °F 29.6 in NNE 1.2 mph 3.1 mph 87% 0 in 0.00 W/m2 unknown
03:09 59 °F 53.6 °F 29.6 in NE 1.9 mph 3.1 mph 87% 0 in 0.00 W/m2 unknown
03:14 57.2 °F 53.6 °F 29.5 in NE 2.5 mph 3.7 mph 88% 0 in 0.00 W/m2 unknown
03:19 57.2 °F 53.6 °F 29.5 in NE 1.9 mph 3.7 mph 88% 0 in 0.00 W/m2 unknown
03:24 57.2 °F 53.6 °F 29.5 in NE 1.2 mph 3.1 mph 88% 0 in 0.00 W/m2 unknown
03:29 57.2 °F 53.6 °F 29.5 in NE 1.2 mph 3.7 mph 89% 0 in 0.00 W/m2 unknown
03:34 57.2 °F 53.6 °F 29.5 in ENE 1.9 mph 3.7 mph 89% 0 in 0.00 W/m2 unknown
03:39 57.2 °F 53.6 °F 29.5 in ENE 1.9 mph 3.1 mph 89% 0 in 0.00 W/m2 unknown
03:44 57.2 °F 53.6 °F 29.5 in East 2.5 mph 3.7 mph 89% 0 in 0.00 W/m2 unknown
03:49 57.2 °F 53.6 °F 29.5 in East 2.5 mph 3.7 mph 89% 0 in 0.00 W/m2 unknown
03:54 57.2 °F 53.6 °F 29.5 in East 1.9 mph 3.7 mph 89% 0 in 0.00 W/m2 unknown
03:59 57.2 °F 53.6 °F 29.5 in East 2.5 mph 5 mph 89% 0 in 0.00 W/m2 unknown
04:04 57.2 °F 53.6 °F 29.5 in ENE 2.5 mph 5 mph 89% 0 in 0.00 W/m2 unknown
04:09 57.2 °F 53.6 °F 29.5 in ENE 1.9 mph 2.5 mph 90% 0 in 0.00 W/m2 unknown
04:13 57.2 °F 53.6 °F 29.5 in ENE 1.2 mph 1.9 mph 90% 0 in 0.00 W/m2 unknown
04:18 57.2 °F 53.6 °F 29.5 in ENE 1.2 mph 2.5 mph 89% 0 in 0.00 W/m2 unknown
04:23 57.2 °F 53.6 °F 29.5 in ENE 1.2 mph 2.5 mph 89% 0 in 0.00 W/m2 unknown
04:28 57.2 °F 53.6 °F 29.5 in NE 1.2 mph 2.5 mph 89% 0 in 0.00 W/m2 unknown
04:33 57.2 °F 53.6 °F 29.5 in NE 1.2 mph 2.5 mph 89% 0 in 0.00 W/m2 unknown
04:38 57.2 °F 53.6 °F 29.5 in NE 1.9 mph 3.7 mph 89% 0 in 0.00 W/m2 unknown
04:43 57.2 °F 53.6 °F 29.5 in NE 2.5 mph 3.7 mph 88% 0 in 0.00 W/m2 unknown
04:48 57.2 °F 53.6 °F 29.5 in NNE 2.5 mph 3.7 mph 88% 0 in 0.00 W/m2 unknown
04:54 57.2 °F 53.6 °F 29.5 in North 2.5 mph 3.7 mph 88% 0 in 0.00 W/m2 unknown
04:58 57.2 °F 53.6 °F 29.5 in North 1.9 mph 3.7 mph 88% 0 in 0.00 W/m2 unknown
05:03 57.2 °F 53.6 °F 29.5 in NNE 1.2 mph 3.1 mph 88% 0 in 0.00 W/m2 unknown
05:09 57.2 °F 53.6 °F 29.5 in NE 1.9 mph 3.7 mph 88% 0 in 0.00 W/m2 unknown
05:14 57.2 °F 53.6 °F 29.5 in NE 1.9 mph 3.7 mph 88% 0 in 0.00 W/m2 unknown
05:19 57.2 °F 53.6 °F 29.5 in NE 2.5 mph 3.7 mph 88% 0 in 0.00 W/m2 unknown
05:24 57.2 °F 53.6 °F 29.5 in NE 3.1 mph 3.7 mph 88% 0 in 0.00 W/m2 unknown
05:29 57.2 °F 53.6 °F 29.5 in NE 2.5 mph 3.7 mph 88% 0 in 0.00 W/m2 unknown
05:34 57.2 °F 53.6 °F 29.5 in ENE 1.9 mph 3.7 mph 88% 0 in 0.00 W/m2 unknown
05:39 57.2 °F 53.6 °F 29.5 in East 2.5 mph 3.7 mph 88% 0 in 0.00 W/m2 unknown
05:44 57.2 °F 53.6 °F 29.5 in East 1.9 mph 3.1 mph 89% 0 in 0.00 W/m2 unknown
05:49 57.2 °F 53.6 °F 29.5 in NE 1.2 mph 3.7 mph 89% 0 in 0.00 W/m2 unknown
05:54 57.2 °F 53.6 °F 29.5 in NE 2.5 mph 5 mph 89% 0 in 0.00 W/m2 unknown
05:59 57.2 °F 53.6 °F 29.5 in ENE 3.1 mph 5 mph 89% 0 in 0.00 W/m2 unknown
06:04 57.2 °F 53.6 °F 29.5 in East 3.7 mph 5 mph 89% 0 in 0.00 W/m2 unknown
06:09 57.2 °F 53.6 °F 29.5 in East 3.7 mph 6.8 mph 89% 0 in 0.00 W/m2 unknown
06:14 57.2 °F 53.6 °F 29.5 in ENE 3.7 mph 6.8 mph 89% 0 in 0.00 W/m2 unknown
06:19 57.2 °F 53.6 °F 29.5 in ENE 3.7 mph 6.8 mph 89% 0 in 0.00 W/m2 unknown
06:24 57.2 °F 53.6 °F 29.5 in ENE 3.7 mph 6.8 mph 90% 0 in 0.00 W/m2 unknown
06:29 57.2 °F 53.6 °F 29.5 in East 4.3 mph 6.2 mph 90% 0 in 0.00 W/m2 unknown
06:34 57.2 °F 53.6 °F 29.5 in ENE 4.3 mph 5.6 mph 90% 0 in 0.00 W/m2 unknown
06:39 57.2 °F 53.6 °F 29.5 in ENE 3.1 mph 6.2 mph 90% 0 in 0.00 W/m2 unknown
06:44 57.2 °F 53.6 °F 29.5 in East 5 mph 6.8 mph 91% 0 in 0.00 W/m2 unknown
06:49 57.2 °F 53.6 °F 29.5 in ENE 4.3 mph 6.8 mph 91% 0 in 0.00 W/m2 unknown
06:54 57.2 °F 53.6 °F 29.5 in East 5 mph 6.8 mph 91% 0 in 0.00 W/m2 unknown
06:59 57.2 °F 55.4 °F 29.5 in East 2.5 mph 5 mph 91% 0 in 0.00 W/m2 unknown
07:04 57.2 °F 55.4 °F 29.5 in East 3.7 mph 6.2 mph 91% 0 in 0.00 W/m2 unknown
07:09 57.2 °F 55.4 °F 29.5 in ENE 3.1 mph 6.2 mph 91% 0 in 0.00 W/m2 unknown
07:14 57.2 °F 55.4 °F 29.5 in East 3.1 mph 6.2 mph 91% 0 in 0.00 W/m2 unknown
07:19 57.2 °F 55.4 °F 29.5 in East 3.7 mph 6.2 mph 92% 0 in 0.00 W/m2 unknown
07:24 57.2 °F 55.4 °F 29.5 in East 3.1 mph 6.2 mph 92% 0 in 5.00 W/m2 unknown
07:29 57.2 °F 55.4 °F 29.5 in East 3.1 mph 6.2 mph 92% 0 in 7.00 W/m2 unknown
07:34 57.2 °F 55.4 °F 29.5 in East 3.1 mph 5 mph 92% 0 in 14.00 W/m2 unknown
07:39 57.2 °F 55.4 °F 29.5 in East 3.1 mph 5 mph 92% 0 in 23.00 W/m2 unknown
07:44 57.2 °F 55.4 °F 29.5 in ENE 3.7 mph 5 mph 92% 0 in 26.00 W/m2 unknown
07:49 57.2 °F 55.4 °F 29.5 in ENE 3.1 mph 5 mph 92% 0 in 32.00 W/m2 unknown
07:54 57.2 °F 55.4 °F 29.5 in ENE 3.1 mph 3.7 mph 92% 0 in 35.00 W/m2 unknown
07:59 57.2 °F 55.4 °F 29.5 in ENE 3.1 mph 5 mph 92% 0 in 35.00 W/m2 unknown
08:04 57.2 °F 55.4 °F 29.5 in ENE 3.7 mph 5 mph 92% 0 in 32.00 W/m2 unknown
08:09 57.2 °F 55.4 °F 29.5 in ENE 3.7 mph 5 mph 92% 0 in 60.00 W/m2 unknown
08:14 57.2 °F 55.4 °F 29.5 in East 3.1 mph 5 mph 92% 0 in 74.00 W/m2 unknown
08:19 57.2 °F 55.4 °F 29.5 in ENE 3.1 mph 5 mph 92% 0 in 56.00 W/m2 unknown
08:24 57.2 °F 55.4 °F 29.5 in East 3.1 mph 5 mph 92% 0 in 91.00 W/m2 unknown
08:29 59 °F 55.4 °F 29.5 in East 1.9 mph 5 mph 92% 0 in 149.00 W/m2 unknown
08:34 59 °F 55.4 °F 29.5 in East 4.3 mph 8.1 mph 92% 0 in 163.00 W/m2 unknown
08:39 59 °F 55.4 °F 29.5 in ENE 4.3 mph 8.1 mph 91% 0 in 102.00 W/m2 unknown
08:44 59 °F 55.4 °F 29.5 in ENE 5 mph 6.8 mph 91% 0 in 132.00 W/m2 unknown
08:49 59 °F 57.2 °F 29.5 in ENE 5 mph 6.8 mph 91% 0 in 190.00 W/m2 unknown
08:54 59 °F 57.2 °F 29.5 in NE 5 mph 6.8 mph 91% 0 in 197.00 W/m2 unknown
08:59 60.8 °F 57.2 °F 29.5 in NE 2.5 mph 3.7 mph 90% 0 in 209.00 W/m2 unknown
09:04 60.8 °F 57.2 °F 29.5 in NE 3.7 mph 5 mph 90% 0 in 221.00 W/m2 unknown
09:09 60.8 °F 57.2 °F 29.5 in ENE 3.1 mph 5 mph 89% 0 in 239.00 W/m2 unknown
09:14 60.8 °F 57.2 °F 29.5 in NE 3.7 mph 5 mph 88% 0 in 255.00 W/m2 unknown
09:19 60.8 °F 57.2 °F 29.5 in ENE 3.7 mph 6.2 mph 88% 0 in 265.00 W/m2 unknown
09:24 62.6 °F 57.2 °F 29.5 in ENE 4.3 mph 6.2 mph 87% 0 in 279.00 W/m2 unknown
09:29 62.6 °F 57.2 °F 29.5 in East 6.2 mph 9.3 mph 87% 0 in 292.00 W/m2 unknown
09:34 62.6 °F 57.2 °F 29.5 in East 6.2 mph 9.3 mph 86% 0 in 313.00 W/m2 unknown
09:39 62.6 °F 57.2 °F 29.5 in East 6.2 mph 8.7 mph 86% 0 in 322.00 W/m2 unknown
09:44 62.6 °F 59 °F 29.5 in East 6.2 mph 8.1 mph 86% 0 in 338.00 W/m2 unknown
09:49 62.6 °F 59 °F 29.5 in East 6.2 mph 8.1 mph 85% 0 in 350.00 W/m2 unknown
09:54 62.6 °F 59 °F 29.5 in ENE 4.3 mph 6.8 mph 85% 0 in 366.00 W/m2 unknown
09:59 64.4 °F 59 °F 29.5 in East 4.3 mph 6.8 mph 85% 0 in 381.00 W/m2 unknown
10:04 64.4 °F 59 °F 29.5 in East 5 mph 6.8 mph 84% 0 in 396.00 W/m2 unknown
10:09 64.4 °F 59 °F 29.5 in ENE 4.3 mph 6.8 mph 84% 0 in 413.00 W/m2 unknown
10:14 64.4 °F 59 °F 29.5 in East 5 mph 6.8 mph 83% 0 in 415.00 W/m2 unknown
10:19 64.4 °F 59 °F 29.5 in East 3.1 mph 5 mph 82% 0 in 424.00 W/m2 unknown
10:24 64.4 °F 59 °F 29.5 in East 4.3 mph 8.1 mph 81% 0 in 438.00 W/m2 unknown
10:29 64.4 °F 59 °F 29.5 in East 4.3 mph 8.1 mph 82% 0 in 448.00 W/m2 unknown
10:34 66.2 °F 59 °F 29.5 in ESE 3.7 mph 6.8 mph 82% 0 in 459.00 W/m2 unknown
10:39 66.2 °F 59 °F 29.5 in ESE 3.1 mph 6.8 mph 80% 0 in 471.00 W/m2 unknown
10:44 66.2 °F 59 °F 29.5 in ESE 2.5 mph 6.8 mph 79% 0 in 483.00 W/m2 unknown
10:49 66.2 °F 59 °F 29.5 in ESE 2.5 mph 6.2 mph 79% 0 in 496.00 W/m2 unknown
10:54 66.2 °F 59 °F 29.5 in ESE 3.1 mph 6.2 mph 80% 0 in 504.00 W/m2 unknown
10:59 66.2 °F 59 °F 29.5 in South 2.5 mph 6.2 mph 78% 0 in 515.00 W/m2 unknown
11:04 66.2 °F 59 °F 29.5 in SW 3.7 mph 6.2 mph 78% 0 in 524.00 W/m2 unknown
11:09 68 °F 59 °F 29.5 in SSW 5 mph 8.1 mph 78% 0 in 538.00 W/m2 unknown
11:14 68 °F 59 °F 29.5 in SW 5.6 mph 8.1 mph 76% 0 in 543.00 W/m2 unknown
11:19 66.2 °F 59 °F 29.5 in South 5 mph 8.1 mph 75% 0 in 559.00 W/m2 unknown
11:24 68 °F 59 °F 29.5 in South 3.1 mph 6.8 mph 75% 0 in 568.00 W/m2 unknown
11:29 68 °F 59 °F 29.5 in SSW 1.9 mph 5 mph 74% 0 in 568.00 W/m2 unknown
11:34 68 °F 59 °F 29.5 in WSW 2.5 mph 3.7 mph 74% 0 in 563.00 W/m2 unknown
11:39 68 °F 59 °F 29.5 in SSW 3.1 mph 5 mph 74% 0 in 584.00 W/m2 unknown
11:44 68 °F 59 °F 29.5 in SW 3.7 mph 5 mph 74% 0 in 605.00 W/m2 unknown
11:49 68 °F 59 °F 29.5 in SSE 3.1 mph 5 mph 73% 0 in 626.00 W/m2 unknown
11:54 68 °F 59 °F 29.5 in SW 2.5 mph 3.7 mph 73% 0 in 647.00 W/m2 unknown
11:59 69.8 °F 60.8 °F 29.5 in SW 2.5 mph 5 mph 73% 0 in 629.00 W/m2 unknown
12:04 69.8 °F 59 °F 29.5 in SW 3.7 mph 5 mph 72% 0 in 545.00 W/m2 unknown
12:09 68 °F 59 °F 29.5 in SSW 3.7 mph 5 mph 72% 0 in 629.00 W/m2 unknown
12:14 69.8 °F 59 °F 29.5 in SSW 4.3 mph 5 mph 72% 0 in 645.00 W/m2 unknown
12:19 69.8 °F 59 °F 29.5 in SW 3.1 mph 5 mph 72% 0 in 642.00 W/m2 unknown
12:24 69.8 °F 60.8 °F 29.5 in SSW 4.3 mph 6.8 mph 71% 0 in 652.00 W/m2 unknown
12:29 69.8 °F 60.8 °F 29.5 in SW 4.3 mph 6.8 mph 71% 0 in 656.00 W/m2 unknown
12:34 69.8 °F 60.8 °F 29.5 in WSW 4.3 mph 8.1 mph 69% 0 in 656.00 W/m2 unknown
12:39 69.8 °F 59 °F 29.5 in WSW 5 mph 8.1 mph 69% 0 in 654.00 W/m2 unknown
12:44 71.6 °F 60.8 °F 29.5 in WSW 5 mph 6.2 mph 69% 0 in 657.00 W/m2 unknown
12:49 71.6 °F 59 °F 29.5 in NW 5 mph 6.2 mph 68% 0 in 654.00 W/m2 unknown
12:54 71.6 °F 59 °F 29.5 in NW 5 mph 6.2 mph 68% 0 in 661.00 W/m2 unknown
12:59 71.6 °F 59 °F 29.5 in West 5 mph 6.8 mph 68% 0 in 666.00 W/m2 unknown
13:04 71.6 °F 59 °F 29.5 in West 5 mph 6.8 mph 66% 0 in 679.00 W/m2 unknown
13:09 71.6 °F 59 °F 29.5 in NW 5 mph 6.8 mph 65% 0 in 689.00 W/m2 unknown
13:14 71.6 °F 59 °F 29.5 in NW 5 mph 6.8 mph 65% 0 in 687.00 W/m2 unknown
13:19 71.6 °F 59 °F 29.5 in NW 4.3 mph 6.8 mph 65% 0 in 687.00 W/m2 unknown
13:24 73.4 °F 59 °F 29.5 in West 5 mph 6.8 mph 64% 0 in 700.00 W/m2 unknown
13:29 73.4 °F 60.8 °F 29.5 in West 5 mph 6.8 mph 65% 0 in 744.00 W/m2 unknown
13:34 73.4 °F 59 °F 29.5 in WNW 5.6 mph 6.8 mph 64% 0 in 735.00 W/m2 unknown
13:39 73.4 °F 60.8 °F 29.5 in WNW 6.2 mph 11.8 mph 64% 0 in 722.00 W/m2 unknown
13:44 73.4 °F 60.8 °F 29.5 in West 7.5 mph 11.8 mph 63% 0 in 701.00 W/m2 unknown
13:49 73.4 °F 59 °F 29.5 in WSW 7.5 mph 10.6 mph 64% 0 in 671.00 W/m2 unknown
13:54 73.4 °F 59 °F 29.5 in West 5 mph 9.9 mph 64% 0 in 675.00 W/m2 unknown
13:59 73.4 °F 59 °F 29.5 in WSW 5.6 mph 10.6 mph 63% 0 in 684.00 W/m2 unknown
14:04 73.4 °F 59 °F 29.5 in WNW 5.6 mph 10.6 mph 63% 0 in 700.00 W/m2 unknown
14:09 73.4 °F 59 °F 29.5 in WNW 5 mph 9.9 mph 63% 0 in 700.00 W/m2 unknown
14:14 73.4 °F 59 °F 29.5 in West 6.8 mph 10.6 mph 62% 0 in 668.00 W/m2 unknown
14:19 73.4 °F 59 °F 29.5 in West 6.2 mph 10.6 mph 61% 0 in 724.00 W/m2 unknown
14:24 73.4 °F 59 °F 29.5 in West 5.6 mph 9.3 mph 61% 0 in 724.00 W/m2 unknown
14:29 73.4 °F 59 °F 29.5 in WNW 6.2 mph 9.3 mph 60% 0 in 680.00 W/m2 unknown
14:34 73.4 °F 59 °F 29.5 in WNW 7.5 mph 11.8 mph 60% 0 in 663.00 W/m2 unknown
14:39 75.2 °F 59 °F 29.5 in WNW 6.8 mph 11.8 mph 59% 0 in 666.00 W/m2 unknown
14:44 75.2 °F 59 °F 29.5 in WNW 6.2 mph 10.6 mph 59% 0 in 626.00 W/m2 unknown
14:49 73.4 °F 59 °F 29.5 in WNW 6.8 mph 11.8 mph 58% 0 in 615.00 W/m2 unknown
14:54 75.2 °F 57.2 °F 29.5 in West 6.8 mph 11.8 mph 56% 0 in 621.00 W/m2 unknown
14:58 75.2 °F 57.2 °F 29.5 in WSW 6.8 mph 11.8 mph 55% 0 in 619.00 W/m2 unknown
15:04 75.2 °F 59 °F 29.5 in WNW 6.2 mph 8.7 mph 57% 0 in 596.00 W/m2 unknown
15:09 75.2 °F 59 °F 29.5 in WNW 6.2 mph 9.3 mph 58% 0 in 592.00 W/m2 unknown
15:14 75.2 °F 59 °F 29.5 in West 6.2 mph 8.7 mph 58% 0 in 592.00 W/m2 unknown
15:19 75.2 °F 59 °F 29.5 in WSW 5.6 mph 11.8 mph 57% 0 in 570.00 W/m2 unknown
15:24 75.2 °F 57.2 °F 29.5 in West 6.8 mph 11.8 mph 57% 0 in 571.00 W/m2 unknown
15:29 75.2 °F 57.2 °F 29.5 in WSW 6.2 mph 11.8 mph 57% 0 in 571.00 W/m2 unknown
15:34 75.2 °F 57.2 °F 29.5 in West 6.2 mph 9.3 mph 56% 0 in 559.00 W/m2 unknown
15:39 75.2 °F 57.2 °F 29.5 in WNW 8.7 mph 11.8 mph 53% 0 in 557.00 W/m2 unknown
15:44 75.2 °F 57.2 °F 29.5 in West 8.7 mph 11.8 mph 54% 0 in 517.00 W/m2 unknown
15:49 75.2 °F 57.2 °F 29.5 in West 6.8 mph 10.6 mph 54% 0 in 517.00 W/m2 unknown
15:54 75.2 °F 57.2 °F 29.5 in West 8.7 mph 11.2 mph 52% 0 in 496.00 W/m2 unknown
15:59 75.2 °F 55.4 °F 29.5 in West 8.7 mph 11.8 mph 52% 0 in 490.00 W/m2 unknown
16:04 75.2 °F 55.4 °F 29.5 in West 8.1 mph 11.8 mph 53% 0 in 487.00 W/m2 unknown
16:09 75.2 °F 55.4 °F 29.5 in West 7.5 mph 10.6 mph 52% 0 in 483.00 W/m2 unknown
16:14 75.2 °F 55.4 °F 29.5 in WSW 8.1 mph 11.8 mph 51% 0 in 483.00 W/m2 unknown
16:19 75.2 °F 57.2 °F 29.5 in WSW 6.8 mph 11.8 mph 52% 0 in 454.00 W/m2 unknown
16:24 75.2 °F 57.2 °F 29.5 in West 6.2 mph 11.8 mph 52% 0 in 455.00 W/m2 unknown
16:29 75.2 °F 55.4 °F 29.5 in WNW 6.2 mph 9.3 mph 51% 0 in 441.00 W/m2 unknown
16:34 75.2 °F 55.4 °F 29.5 in West 6.2 mph 9.3 mph 51% 0 in 425.00 W/m2 unknown
16:39 75.2 °F 55.4 °F 29.5 in West 6.2 mph 10.6 mph 52% 0 in 410.00 W/m2 unknown
16:44 75.2 °F 55.4 °F 29.5 in West 6.2 mph 9.9 mph 52% 0 in 404.00 W/m2 unknown
16:49 75.2 °F 55.4 °F 29.5 in West 6.8 mph 9.3 mph 51% 0 in 378.00 W/m2 unknown
16:54 75.2 °F 55.4 °F 29.5 in WSW 6.2 mph 9.3 mph 51% 0 in 364.00 W/m2 unknown
16:59 75.2 °F 55.4 °F 29.5 in WSW 6.8 mph 9.3 mph 50% 0 in 327.00 W/m2 unknown
17:04 75.2 °F 55.4 °F 29.5 in WSW 6.8 mph 9.9 mph 52% 0 in 315.00 W/m2 unknown
17:09 75.2 °F 55.4 °F 29.5 in WNW 5.6 mph 10.6 mph 51% 0 in 318.00 W/m2 unknown
17:14 75.2 °F 57.2 °F 29.5 in West 6.2 mph 9.9 mph 53% 0 in 318.00 W/m2 unknown
17:19 75.2 °F 57.2 °F 29.5 in West 5.6 mph 8.1 mph 53% 0 in 336.00 W/m2 unknown
17:24 75.2 °F 57.2 °F 29.5 in SW 6.2 mph 8.1 mph 53% 0 in 330.00 W/m2 unknown
17:29 75.2 °F 55.4 °F 29.5 in WSW 5.6 mph 8.1 mph 52% 0 in 327.00 W/m2 unknown
17:34 75.2 °F 55.4 °F 29.5 in WSW 5.6 mph 8.7 mph 52% 0 in 322.00 W/m2 unknown
17:39 75.2 °F 55.4 °F 29.5 in West 6.2 mph 9.3 mph 52% 0 in 315.00 W/m2 unknown
17:44 75.2 °F 55.4 °F 29.5 in West 6.2 mph 8.7 mph 52% 0 in 287.00 W/m2 unknown
17:49 75.2 °F 55.4 °F 29.5 in West 3.7 mph 8.1 mph 51% 0 in 236.00 W/m2 unknown
17:54 75.2 °F 55.4 °F 29.5 in West 5.6 mph 9.3 mph 51% 0 in 223.00 W/m2 unknown
17:59 75.2 °F 55.4 °F 29.5 in West 6.2 mph 8.7 mph 51% 0 in 209.00 W/m2 unknown
18:04 75.2 °F 55.4 °F 29.5 in WNW 5 mph 8.1 mph 50% 0 in 156.00 W/m2 unknown
18:09 75.2 °F 55.4 °F 29.5 in West 3.1 mph 5 mph 52% 0 in 139.00 W/m2 unknown
18:14 73.4 °F 55.4 °F 29.5 in West 2.5 mph 5 mph 52% 0 in 128.00 W/m2 unknown
18:19 73.4 °F 55.4 °F 29.5 in West 3.7 mph 6.2 mph 52% 0 in 74.00 W/m2 unknown
18:24 73.4 °F 55.4 °F 29.5 in WSW 3.7 mph 6.2 mph 54% 0 in 53.00 W/m2 unknown
18:29 73.4 °F 55.4 °F 29.5 in WSW 3.1 mph 6.2 mph 55% 0 in 35.00 W/m2 unknown
18:34 71.6 °F 55.4 °F 29.5 in West 2.5 mph 3.7 mph 56% 0 in 26.00 W/m2 unknown
18:39 71.6 °F 55.4 °F 29.5 in West 2.5 mph 3.7 mph 57% 0 in 25.00 W/m2 unknown
18:44 71.6 °F 55.4 °F 29.5 in WNW 1.9 mph 3.1 mph 58% 0 in 19.00 W/m2 unknown
18:49 71.6 °F 55.4 °F 29.5 in West 1.2 mph 2.5 mph 61% 0 in 18.00 W/m2 unknown
18:54 69.8 °F 57.2 °F 29.5 in West 1.2 mph 2.5 mph 62% 0 in 16.00 W/m2 unknown
18:59 69.8 °F 57.2 °F 29.5 in Calm   1.2 mph 65% 0 in 12.00 W/m2 unknown
19:04 69.8 °F 57.2 °F 29.5 in Calm   1.2 mph 66% 0 in 9.00 W/m2 unknown
19:09 68 °F 57.2 °F 29.5 in Calm   1.2 mph 67% 0 in 5.00 W/m2 unknown
19:14 68 °F 57.2 °F 29.5 in Calm   1.2 mph 69% 0 in 0.00 W/m2 unknown
19:19 68 °F 57.2 °F 29.5 in Calm     70% 0 in 0.00 W/m2 unknown
19:24 66.2 °F 57.2 °F 29.5 in South 0.6 mph 3.7 mph 71% 0 in 0.00 W/m2 unknown
19:29 68 °F 57.2 °F 29.5 in SSW 1.2 mph 3.7 mph 70% 0 in 0.00 W/m2 unknown
19:34 68 °F 57.2 °F 29.5 in SSW 1.2 mph 3.7 mph 69% 0 in 0.00 W/m2 unknown
19:39 68 °F 57.2 °F 29.5 in SW 2.5 mph 3.7 mph 69% 0 in 0.00 W/m2 unknown
19:44 68 °F 57.2 °F 29.5 in WSW 2.5 mph 3.7 mph 68% 0 in 0.00 W/m2 unknown
19:49 68 °F 55.4 °F 29.5 in WSW 1.2 mph 3.1 mph 68% 0 in 0.00 W/m2 unknown
19:54 66.2 °F 55.4 °F 29.5 in WSW 1.2 mph 2.5 mph 69% 0 in 0.00 W/m2 unknown
19:59 66.2 °F 55.4 °F 29.5 in WSW 1.2 mph 1.9 mph 71% 0 in 0.00 W/m2 unknown
20:04 66.2 °F 55.4 °F 29.5 in Calm   1.2 mph 72% 0 in 0.00 W/m2 unknown
20:09 64.4 °F 55.4 °F 29.5 in Calm     73% 0 in 0.00 W/m2 unknown
20:14 64.4 °F 55.4 °F 29.5 in NNW 0.6 mph 2.5 mph 75% 0 in 0.00 W/m2 unknown
20:19 64.4 °F 55.4 °F 29.5 in NNW 0.6 mph 2.5 mph 75% 0 in 0.00 W/m2 unknown
20:24 64.4 °F 55.4 °F 29.5 in NW 1.2 mph 1.9 mph 76% 0 in 0.00 W/m2 unknown
20:29 64.4 °F 55.4 °F 29.5 in Calm   1.2 mph 76% 0 in 0.00 W/m2 unknown
20:34 62.6 °F 55.4 °F 29.5 in ENE 0.6 mph 2.5 mph 76% 0 in 0.00 W/m2 unknown
20:39 62.6 °F 55.4 °F 29.5 in East 1.2 mph 3.7 mph 78% 0 in 0.00 W/m2 unknown
20:44 62.6 °F 55.4 °F 29.5 in SE 3.7 mph 6.2 mph 79% 0 in 0.00 W/m2 unknown
20:49 62.6 °F 55.4 °F 29.5 in ESE 3.7 mph 5.6 mph 79% 0 in 0.00 W/m2 unknown
20:54 62.6 °F 55.4 °F 29.5 in WSW 1.9 mph 6.2 mph 79% 0 in 0.00 W/m2 unknown
20:59 62.6 °F 55.4 °F 29.5 in East 1.2 mph 3.7 mph 79% 0 in 0.00 W/m2 unknown
21:04 62.6 °F 55.4 °F 29.5 in ESE 1.2 mph 1.9 mph 78% 0 in 0.00 W/m2 unknown
21:09 62.6 °F 55.4 °F 29.5 in Calm   1.2 mph 79% 0 in 0.00 W/m2 unknown
21:14 62.6 °F 55.4 °F 29.5 in Calm     79% 0 in 0.00 W/m2 unknown
21:19 60.8 °F 55.4 °F 29.5 in Calm     80% 0 in 0.00 W/m2 unknown
21:24 60.8 °F 55.4 °F 29.5 in Calm     80% 0 in 0.00 W/m2 unknown
21:29 60.8 °F 55.4 °F 29.5 in Calm     81% 0 in 0.00 W/m2 unknown
21:34 60.8 °F 55.4 °F 29.5 in Calm     81% 0 in 0.00 W/m2 unknown
21:39 60.8 °F 55.4 °F 29.5 in Calm     81% 0 in 0.00 W/m2 unknown
21:44 60.8 °F 55.4 °F 29.5 in Calm     81% 0 in 0.00 W/m2 unknown
21:49 60.8 °F 55.4 °F 29.5 in Calm     81% 0 in 0.00 W/m2 unknown
21:54 60.8 °F 55.4 °F 29.5 in Calm     82% 0 in 0.00 W/m2 unknown
21:59 60.8 °F 55.4 °F 29.5 in Calm     82% 0 in 0.00 W/m2 unknown
22:04 60.8 °F 55.4 °F 29.5 in Calm     82% 0 in 0.00 W/m2 unknown
22:09 60.8 °F 55.4 °F 29.5 in Calm     82% 0 in 0.00 W/m2 unknown
22:14 60.8 °F 55.4 °F 29.5 in Calm   1.2 mph 83% 0 in 0.00 W/m2 unknown
22:19 60.8 °F 55.4 °F 29.5 in SW 1.2 mph 3.7 mph 82% 0 in 0.00 W/m2 unknown
22:24 60.8 °F 55.4 °F 29.5 in SW 2.5 mph 3.7 mph 82% 0 in 0.00 W/m2 unknown
22:29 60.8 °F 55.4 °F 29.5 in SW 1.9 mph 3.7 mph 82% 0 in 0.00 W/m2 unknown
22:34 60.8 °F 55.4 °F 29.5 in SW 1.2 mph 3.1 mph 82% 0 in 0.00 W/m2 unknown
22:39 60.8 °F 55.4 °F 29.5 in SSW 0.6 mph 1.2 mph 82% 0 in 0.00 W/m2 unknown
22:44 59 °F 53.6 °F 29.5 in SSW 0.6 mph 1.2 mph 83% 0 in 0.00 W/m2 unknown
22:49 59 °F 53.6 °F 29.5 in SSE 0.6 mph 1.2 mph 84% 0 in 0.00 W/m2 unknown
22:54 59 °F 53.6 °F 29.5 in East 1.2 mph 3.7 mph 84% 0 in 0.00 W/m2 unknown
22:59 59 °F 53.6 °F 29.6 in East 1.9 mph 5 mph 84% 0 in 0.00 W/m2 unknown
23:04 59 °F 55.4 °F 29.6 in ENE 3.1 mph 5 mph 84% 0 in 0.00 W/m2 unknown
23:09 59 °F 53.6 °F 29.6 in ENE 3.1 mph 5 mph 82% 0 in 0.00 W/m2 unknown
23:14 59 °F 53.6 °F 29.6 in East 2.5 mph 3.7 mph 82% 0 in 0.00 W/m2 unknown
23:19 59 °F 53.6 °F 29.6 in ENE 1.9 mph 3.7 mph 83% 0 in 0.00 W/m2 unknown
23:24 59 °F 53.6 °F 29.6 in East 2.5 mph 5 mph 83% 0 in 0.00 W/m2 unknown
23:29 59 °F 53.6 °F 29.6 in ENE 3.1 mph 5 mph 83% 0 in 0.00 W/m2 unknown
23:34 59 °F 53.6 °F 29.6 in East 3.1 mph 5 mph 82% 0 in 0.00 W/m2 unknown
23:39 59 °F 53.6 °F 29.6 in ENE 4.3 mph 6.2 mph 83% 0 in 0.00 W/m2 unknown
23:44 59 °F 53.6 °F 29.6 in NE 4.3 mph 6.8 mph 83% 0 in 0.00 W/m2 unknown
23:49 59 °F 55.4 °F 29.6 in ENE 4.3 mph 6.8 mph 84% 0 in 0.00 W/m2 unknown
23:54 59 °F 55.4 °F 29.6 in NE 4.3 mph 5 mph 85% 0 in 0.00 W/m2 unknown
23:59 59 °F 55.4 °F 29.6 in ENE 3.7 mph 6.2 mph 85% 0 in 0.00 W/m2 unknown
Stazione Meteorologica MeteoMincio Rivalta s/M (MN)
Con i complimenti di Weather Underground - 4 mb



METEO PILLOLE
Temperatura più bassa in montagna in Italia
Busa Fradusta (2.606m) Pale di San Martino - Trento
-48.3°C il 27 Dicembre 2010.
Share

Non seguire questo link o sarai bannato dal sito!